createdAt,value
2022-09-16T00:01:30.635Z,13.65
2022-09-16T00:03:58.831Z,15.20
2022-09-16T00:06:28.943Z,22.67
2022-09-16T00:09:00.977Z,15.95
2022-09-16T00:11:33.719Z,15.55
2022-09-16T00:14:02.347Z,12.77
2022-09-16T00:16:30.634Z,16.42
2022-09-16T00:19:00.839Z,20.75
2022-09-16T00:21:29.854Z,18.60
2022-09-16T00:23:58.379Z,16.23
2022-09-16T00:26:26.152Z,18.55
2022-09-16T00:28:53.826Z,17.92
2022-09-16T00:31:21.593Z,17.48
2022-09-16T00:33:49.383Z,18.88
2022-09-16T00:36:19.967Z,18.13
2022-09-16T00:38:52.866Z,18.92
2022-09-16T00:41:25.530Z,15.35
2022-09-16T00:44:01.298Z,20.33
2022-09-16T00:46:49.641Z,14.52
2022-09-16T00:49:31.105Z,16.73
2022-09-16T00:52:02.731Z,17.77
2022-09-16T00:54:32.052Z,17.00
2022-09-16T00:57:01.814Z,19.45
2022-09-16T00:59:36.534Z,14.65
2022-09-16T01:02:08.375Z,15.75
2022-09-16T01:04:48.259Z,16.38
2022-09-16T01:07:17.330Z,20.33
2022-09-16T01:09:45.098Z,13.77
2022-09-16T01:12:12.783Z,16.83
2022-09-16T01:14:56.698Z,14.02
2022-09-16T01:17:32.968Z,20.70
2022-09-16T01:20:54.572Z,14.45
2022-09-16T01:23:34.344Z,17.70
2022-09-16T01:26:20.401Z,18.33
2022-09-16T01:29:15.214Z,17.27
2022-09-16T01:31:53.066Z,16.05
2022-09-16T01:34:42.416Z,17.50
2022-09-16T01:37:25.149Z,13.80
2022-09-16T01:40:16.301Z,17.17
2022-09-16T01:42:58.035Z,14.55
2022-09-16T01:45:56.841Z,14.57
2022-09-16T01:48:28.263Z,15.73
2022-09-16T01:51:48.232Z,15.77
2022-09-16T01:54:26.335Z,12.48
2022-09-16T01:57:01.667Z,12.82
2022-09-16T01:59:42.448Z,16.42
2022-09-16T02:02:35.922Z,12.30
2022-09-16T02:05:09.223Z,15.20
2022-09-16T02:07:42.610Z,16.42
2022-09-16T02:10:23.173Z,16.27
2022-09-16T02:12:54.488Z,17.30
2022-09-16T02:15:26.515Z,13.73
2022-09-16T02:18:04.466Z,16.38
2022-09-16T02:20:36.962Z,13.65
2022-09-16T02:23:22.287Z,14.02
2022-09-16T02:25:52.809Z,14.93
2022-09-16T02:28:27.205Z,11.52
2022-09-16T02:31:00.096Z,7.75
2022-09-16T02:33:44.980Z,9.45
2022-09-16T02:36:17.642Z,10.57
2022-09-16T02:38:50.570Z,8.82
2022-09-16T02:41:18.557Z,7.30
2022-09-16T02:43:46.782Z,8.18
2022-09-16T02:46:26.228Z,8.27
2022-09-16T02:49:18.296Z,11.00
2022-09-16T02:52:10.635Z,10.18
2022-09-16T02:55:13.588Z,9.68
2022-09-16T02:57:41.792Z,8.70
2022-09-16T03:00:10.343Z,10.05
2022-09-16T03:02:38.159Z,10.55
2022-09-16T03:05:06.294Z,6.80
2022-09-16T03:07:34.651Z,7.00
2022-09-16T03:10:03.254Z,6.78
2022-09-16T03:12:49.720Z,13.15
2022-09-16T03:15:44.366Z,7.70
2022-09-16T03:18:35.240Z,6.45
2022-09-16T03:21:17.494Z,7.72
2022-09-16T03:23:57.415Z,6.78
2022-09-16T03:26:49.566Z,8.25
2022-09-16T03:29:18.078Z,9.40
2022-09-16T03:32:15.412Z,7.65
2022-09-16T03:34:49.829Z,8.55
2022-09-16T03:37:21.608Z,7.53
2022-09-16T03:39:55.658Z,9.73
2022-09-16T03:42:23.627Z,8.43
2022-09-16T03:44:51.287Z,12.18
2022-09-16T03:47:19.226Z,12.02
2022-09-16T03:49:46.958Z,9.02
2022-09-16T03:52:14.703Z,10.93
2022-09-16T03:54:42.377Z,7.50
2022-09-16T03:57:10.454Z,9.18
2022-09-16T03:59:38.076Z,7.13
2022-09-16T04:02:05.951Z,7.93
2022-09-16T04:04:34.034Z,10.32
2022-09-16T04:07:01.575Z,8.25
2022-09-16T04:09:29.184Z,9.40
2022-09-16T04:11:57.044Z,8.15
2022-09-16T04:14:24.718Z,11.40
2022-09-16T04:16:52.307Z,9.57
2022-09-16T04:19:20.190Z,12.07
2022-09-16T04:21:47.883Z,14.15
2022-09-16T04:24:15.417Z,9.10
2022-09-16T04:26:43.803Z,9.45
2022-09-16T04:29:11.737Z,9.00
2022-09-16T04:31:39.513Z,9.80
2022-09-16T04:34:07.396Z,10.13
2022-09-16T04:36:35.588Z,8.40
2022-09-16T04:39:03.651Z,7.57
2022-09-16T04:41:31.697Z,9.23
2022-09-16T04:44:00.450Z,8.70
2022-09-16T04:46:30.773Z,11.70
2022-09-16T04:49:00.081Z,8.63
2022-09-16T04:51:28.713Z,10.75
2022-09-16T04:53:57.509Z,11.27
2022-09-16T04:56:27.825Z,8.07
2022-09-16T04:58:59.565Z,10.55
2022-09-16T05:01:31.284Z,10.88
2022-09-16T05:04:01.780Z,9.80
2022-09-16T05:06:32.491Z,11.25
2022-09-16T05:09:01.105Z,13.23
2022-09-16T05:11:36.968Z,7.75
2022-09-16T05:14:08.709Z,12.30
2022-09-16T05:16:36.380Z,10.52
2022-09-16T05:19:04.974Z,11.35
2022-09-16T05:21:36.224Z,8.77
2022-09-16T05:24:08.577Z,10.77
2022-09-16T05:26:39.035Z,8.68
2022-09-16T05:29:14.451Z,12.23
2022-09-16T05:31:44.329Z,9.40
2022-09-16T05:34:28.509Z,8.65
2022-09-16T05:39:25.481Z,7.57
2022-09-16T05:41:59.931Z,8.25
2022-09-16T05:44:29.274Z,10.55
2022-09-16T05:46:57.335Z,8.70
2022-09-16T05:49:25.722Z,9.38
2022-09-16T05:51:55.132Z,8.95
2022-09-16T05:54:25.080Z,9.10
2022-09-16T05:56:52.836Z,9.18
2022-09-16T05:59:22.607Z,5.82
2022-09-16T06:01:50.461Z,11.25
2022-09-16T06:04:18.223Z,10.23
2022-09-16T06:06:47.160Z,8.10
2022-09-16T06:09:21.061Z,8.82
2022-09-16T06:14:19.509Z,7.90
2022-09-16T06:16:48.961Z,6.10
2022-09-16T06:19:18.653Z,7.38
2022-09-16T06:21:47.523Z,9.88
2022-09-16T06:24:17.110Z,7.72
2022-09-16T06:26:46.940Z,10.02
2022-09-16T06:29:16.708Z,9.60
2022-09-16T06:31:44.580Z,10.18
2022-09-16T06:34:18.673Z,12.38
2022-09-16T06:36:47.245Z,12.25
2022-09-16T06:39:17.117Z,7.82
2022-09-16T06:41:49.134Z,7.30
2022-09-16T06:44:17.081Z,7.75
2022-09-16T06:46:44.835Z,8.50
2022-09-16T06:49:13.114Z,8.45
2022-09-16T06:51:41.656Z,10.90
2022-09-16T06:54:10.931Z,7.53
2022-09-16T06:56:41.251Z,7.32
2022-09-16T06:59:10.405Z,6.03
2022-09-16T07:01:38.489Z,6.72
2022-09-16T07:04:11.053Z,7.68
2022-09-16T07:09:27.270Z,7.57
2022-09-16T07:11:55.371Z,6.80
2022-09-16T07:14:23.281Z,10.05
2022-09-16T07:16:51.241Z,5.65
2022-09-16T07:19:19.491Z,7.93
2022-09-16T07:21:47.228Z,7.90
2022-09-16T07:24:15.260Z,7.15
2022-09-16T07:26:44.227Z,6.57
2022-09-16T07:29:15.017Z,4.38
2022-09-16T07:31:43.134Z,7.43
2022-09-16T07:34:12.594Z,11.05
2022-09-16T07:36:41.838Z,10.63
2022-09-16T07:39:10.504Z,12.35
2022-09-16T07:41:41.249Z,10.50
2022-09-16T07:44:15.275Z,15.52
2022-09-16T07:46:43.746Z,9.57
2022-09-16T07:49:14.342Z,5.72
2022-09-16T07:51:42.571Z,8.88
2022-09-16T07:54:13.719Z,8.63
2022-09-16T07:56:42.954Z,8.20
2022-09-16T07:59:17.665Z,6.85
2022-09-16T08:01:47.866Z,6.53
2022-09-16T08:04:17.261Z,8.13
2022-09-16T08:06:45.176Z,5.63
2022-09-16T08:09:38.570Z,6.50
2022-09-16T08:12:03.567Z,8.00
2022-09-16T08:14:31.380Z,6.30
2022-09-16T08:16:59.061Z,7.95
2022-09-16T08:19:26.951Z,7.78
2022-09-16T08:21:54.586Z,10.32
2022-09-16T08:24:22.401Z,6.35
2022-09-16T08:26:50.298Z,10.57
2022-09-16T08:29:18.520Z,9.52
2022-09-16T08:31:46.470Z,7.43
2022-09-16T08:34:15.988Z,6.05
2022-09-16T08:36:44.038Z,9.85
2022-09-16T08:39:12.153Z,6.32
2022-09-16T08:42:30.415Z,9.10
2022-09-16T08:45:31.713Z,5.13
2022-09-16T08:48:34.877Z,5.68
2022-09-16T08:51:04.243Z,10.07
2022-09-16T08:53:38.445Z,8.32
2022-09-16T08:58:48.787Z,6.90
2022-09-16T09:01:34.980Z,7.47
2022-09-16T09:04:03.976Z,7.72
2022-09-16T09:06:51.108Z,4.00
2022-09-16T09:09:37.322Z,8.60
2022-09-16T09:12:26.737Z,5.28
2022-09-16T09:15:16.892Z,7.18
2022-09-16T09:18:02.814Z,4.68
2022-09-16T09:21:05.958Z,6.00
2022-09-16T09:24:07.615Z,17.73
2022-09-16T09:27:12.248Z,3.70
2022-09-16T09:29:50.392Z,6.68
2022-09-16T09:32:49.388Z,7.28
2022-09-16T09:35:25.016Z,9.02
2022-09-16T09:38:14.892Z,5.25
2022-09-16T09:40:56.750Z,6.05
2022-09-16T09:43:34.227Z,8.75
2022-09-16T09:46:13.425Z,9.70
2022-09-16T09:48:48.151Z,9.15
2022-09-16T09:51:38.034Z,8.50
2022-09-16T09:54:29.755Z,5.80
2022-09-16T09:57:03.669Z,5.90
2022-09-16T09:59:42.738Z,5.45
2022-09-16T10:02:22.658Z,4.97
2022-09-16T10:04:51.062Z,5.47
2022-09-16T10:07:23.465Z,3.95
2022-09-16T10:10:01.488Z,4.68
2022-09-16T10:12:32.102Z,6.78
2022-09-16T10:15:00.505Z,9.25
2022-09-16T10:17:37.350Z,5.72
2022-09-16T10:20:23.916Z,10.50
2022-09-16T10:23:07.048Z,3.65
2022-09-16T10:25:35.535Z,6.88
2022-09-16T10:28:06.324Z,8.57
2022-09-16T10:30:54.362Z,7.28
2022-09-16T10:33:30.502Z,5.35
2022-09-16T10:36:02.537Z,5.57
2022-09-16T10:38:47.138Z,4.95
2022-09-16T10:41:24.024Z,3.35
2022-09-16T10:44:02.476Z,5.35
2022-09-16T10:46:31.217Z,6.30
2022-09-16T10:49:10.810Z,4.53
2022-09-16T10:51:38.694Z,6.95
2022-09-16T10:54:07.132Z,2.60
2022-09-16T10:56:48.140Z,4.63
2022-09-16T10:59:16.361Z,6.80
2022-09-16T11:02:29.074Z,5.90
2022-09-16T11:05:21.629Z,4.88
2022-09-16T11:10:42.455Z,4.68
2022-09-16T11:13:25.201Z,4.63
2022-09-16T11:16:23.853Z,7.82
2022-09-16T11:19:26.345Z,5.53
2022-09-16T11:22:21.306Z,6.25
2022-09-16T11:24:49.300Z,3.13
2022-09-16T11:27:31.090Z,2.90
2022-09-16T11:30:15.037Z,4.93
2022-09-16T11:33:04.676Z,5.97
2022-09-16T11:36:29.263Z,4.18
2022-09-16T11:39:17.112Z,2.17
2022-09-16T11:42:00.084Z,4.80
2022-09-16T11:44:52.723Z,3.22
2022-09-16T11:47:40.829Z,4.82
2022-09-16T11:50:46.216Z,8.75
2022-09-16T11:56:26.195Z,6.43
2022-09-16T11:58:58.033Z,3.58
2022-09-16T12:01:50.211Z,4.43
2022-09-16T12:04:33.699Z,2.60
2022-09-16T12:07:25.819Z,5.50
2022-09-16T12:10:05.699Z,5.13
2022-09-16T12:12:38.904Z,5.10
2022-09-16T12:15:21.354Z,5.35
2022-09-16T12:18:08.513Z,4.88
2022-09-16T12:20:41.800Z,2.97
2022-09-16T12:23:22.498Z,8.00
2022-09-16T12:25:59.392Z,6.57
2022-09-16T12:28:33.828Z,5.22
2022-09-16T12:31:23.066Z,4.82
2022-09-16T12:34:03.790Z,2.05
2022-09-16T12:36:35.772Z,3.38
2022-09-16T12:39:03.948Z,2.70
2022-09-16T12:42:09.986Z,6.15
2022-09-16T12:45:08.072Z,5.72
2022-09-16T12:48:05.587Z,7.20
2022-09-16T12:51:01.732Z,6.00
2022-09-16T12:53:54.507Z,3.72
2022-09-16T12:56:59.817Z,4.07
2022-09-16T13:02:04.650Z,4.45
2022-09-16T13:04:38.893Z,2.78
2022-09-16T13:07:07.629Z,4.35
2022-09-16T13:09:40.795Z,5.43
2022-09-16T13:12:44.831Z,3.92
2022-09-16T13:15:29.391Z,4.30
2022-09-16T13:20:47.869Z,5.28
2022-09-16T13:23:32.962Z,3.63
2022-09-16T13:26:09.542Z,5.38
2022-09-16T13:28:40.780Z,8.27
2022-09-16T13:31:11.301Z,4.20
2022-09-16T13:33:44.024Z,3.50
2022-09-16T13:36:18.564Z,6.00
2022-09-16T13:38:59.232Z,5.68
2022-09-16T13:41:35.016Z,2.20
2022-09-16T13:44:23.733Z,4.50
2022-09-16T13:46:51.435Z,7.40
2022-09-16T13:49:21.615Z,5.68
2022-09-16T13:51:50.946Z,5.60
2022-09-16T13:54:22.738Z,4.00
2022-09-16T13:57:12.521Z,7.57
2022-09-16T14:03:02.925Z,4.65
2022-09-16T14:05:51.967Z,6.50
2022-09-16T14:08:44.010Z,6.70
2022-09-16T14:11:24.006Z,5.30
2022-09-16T14:14:05.127Z,5.35
2022-09-16T14:16:35.406Z,7.88
2022-09-16T14:19:16.789Z,5.55
2022-09-16T14:21:44.523Z,3.83
2022-09-16T14:24:20.365Z,4.68
2022-09-16T14:26:52.832Z,7.65
2022-09-16T14:29:21.864Z,6.80
2022-09-16T14:31:52.675Z,3.78
2022-09-16T14:34:29.905Z,3.42
2022-09-16T14:36:58.113Z,3.92
2022-09-16T14:39:28.200Z,5.57
2022-09-16T14:41:59.230Z,7.15
2022-09-16T14:44:32.018Z,3.75
2022-09-16T14:47:08.859Z,4.07
2022-09-16T14:49:41.779Z,5.22
2022-09-16T14:52:23.134Z,5.00
2022-09-16T14:54:51.958Z,4.35
2022-09-16T14:57:25.116Z,6.55
2022-09-16T14:59:58.762Z,2.08
2022-09-16T15:02:56.037Z,9.15
2022-09-16T15:05:39.787Z,8.00
2022-09-16T15:08:17.004Z,3.92
2022-09-16T15:10:56.059Z,8.73
2022-09-16T15:13:44.624Z,6.03
2022-09-16T15:16:22.732Z,5.57
2022-09-16T15:18:54.611Z,7.32
2022-09-16T15:21:29.940Z,4.68
2022-09-16T15:24:01.111Z,3.55
2022-09-16T15:26:42.180Z,4.82
2022-09-16T15:29:19.299Z,2.17
2022-09-16T15:31:50.352Z,3.30
2022-09-16T15:34:20.940Z,2.13
2022-09-16T15:36:52.032Z,5.18
2022-09-16T15:39:36.059Z,3.17
2022-09-16T15:42:20.470Z,3.53
2022-09-16T15:44:57.864Z,2.28
2022-09-16T15:47:36.058Z,4.38
2022-09-16T15:50:18.025Z,4.97
2022-09-16T15:52:55.762Z,4.07
2022-09-16T15:55:53.146Z,4.50
2022-09-16T15:58:24.340Z,3.88
2022-09-16T16:00:57.793Z,4.55
2022-09-16T16:03:26.831Z,4.65
2022-09-16T16:05:55.231Z,5.38
2022-09-16T16:08:48.274Z,5.25
2022-09-16T16:11:19.218Z,3.22
2022-09-16T16:13:47.490Z,5.25
2022-09-16T16:16:16.707Z,3.63
2022-09-16T16:18:46.318Z,8.23
2022-09-16T16:21:17.542Z,5.05
2022-09-16T16:23:45.513Z,3.03
2022-09-16T16:26:13.378Z,4.05
2022-09-16T16:28:41.057Z,4.07
2022-09-16T16:31:17.801Z,7.25
2022-09-16T16:33:47.545Z,1.98
2022-09-16T16:36:18.378Z,2.55
2022-09-16T16:38:46.371Z,4.38
2022-09-16T16:41:20.902Z,6.60
2022-09-16T16:43:49.851Z,5.35
2022-09-16T16:46:19.350Z,3.55
2022-09-16T16:48:47.493Z,2.40
2022-09-16T16:51:15.450Z,3.70
2022-09-16T16:53:47.196Z,6.20
2022-09-16T16:56:15.734Z,3.13
2022-09-16T16:58:43.714Z,4.45
2022-09-16T17:01:16.782Z,3.45
2022-09-16T17:03:46.290Z,5.72
2022-09-16T17:06:14.516Z,6.85
2022-09-16T17:08:42.358Z,5.20
2022-09-16T17:11:11.011Z,3.65
2022-09-16T17:13:45.328Z,4.85
2022-09-16T17:16:15.335Z,8.25
2022-09-16T17:18:43.723Z,5.38
2022-09-16T17:21:14.454Z,6.57
2022-09-16T17:23:42.531Z,4.10
2022-09-16T17:26:11.289Z,5.32
2022-09-16T17:28:40.946Z,4.03
2022-09-16T17:31:27.778Z,5.45
2022-09-16T17:34:07.207Z,4.45
2022-09-16T17:36:37.435Z,5.40
2022-09-16T17:39:11.529Z,5.28
2022-09-16T17:41:39.226Z,5.30
2022-09-16T17:44:08.125Z,4.40
2022-09-16T17:46:35.950Z,6.10
2022-09-16T17:49:07.680Z,5.18
2022-09-16T17:51:35.976Z,6.80
2022-09-16T17:54:04.027Z,7.05
2022-09-16T17:56:31.599Z,5.47
2022-09-16T17:59:00.279Z,4.38
2022-09-16T18:01:28.259Z,4.90
2022-09-16T18:03:56.621Z,9.18
2022-09-16T18:06:35.504Z,5.78
2022-09-16T18:09:07.175Z,5.45
2022-09-16T18:11:36.209Z,4.72
2022-09-16T18:14:06.044Z,5.65
2022-09-16T18:16:33.909Z,6.13
2022-09-16T18:19:02.737Z,4.78
2022-09-16T18:21:32.492Z,5.93
2022-09-16T18:24:02.901Z,5.70
2022-09-16T18:26:32.122Z,7.35
2022-09-16T18:29:11.371Z,6.18
2022-09-16T18:31:43.808Z,8.27
2022-09-16T18:34:12.844Z,10.00
2022-09-16T18:36:41.851Z,8.32
2022-09-16T18:39:17.213Z,8.20
2022-09-16T18:41:46.794Z,8.57
2022-09-16T18:44:19.986Z,8.13
2022-09-16T18:46:48.228Z,8.80
2022-09-16T18:49:17.510Z,10.10
2022-09-16T18:51:51.319Z,6.07
2022-09-16T18:54:29.113Z,9.10
2022-09-16T18:57:01.887Z,7.07
2022-09-16T18:59:32.024Z,10.00
2022-09-16T19:02:03.391Z,9.05
2022-09-16T19:04:38.043Z,7.60
2022-09-16T19:07:08.663Z,6.50
2022-09-16T19:09:39.680Z,7.85
2022-09-16T19:12:10.925Z,8.00
2022-09-16T19:14:40.123Z,9.60
2022-09-16T19:17:08.365Z,7.18
2022-09-16T19:19:36.180Z,7.60
2022-09-16T19:22:05.856Z,6.10
2022-09-16T19:24:35.104Z,8.77
2022-09-16T19:27:02.931Z,11.73
2022-09-16T19:29:32.593Z,14.38
2022-09-16T19:32:00.580Z,12.85
2022-09-16T19:34:28.461Z,8.98
2022-09-16T19:36:56.861Z,9.65
2022-09-16T19:39:26.922Z,9.75
2022-09-16T19:41:54.659Z,8.68
2022-09-16T19:44:22.499Z,13.23
2022-09-16T19:46:50.734Z,11.40
2022-09-16T19:49:21.052Z,11.77
2022-09-16T19:51:50.173Z,8.65
2022-09-16T19:54:18.343Z,13.65
2022-09-16T19:56:50.613Z,9.52
2022-09-16T19:59:19.672Z,8.85
2022-09-16T20:01:48.112Z,10.30
2022-09-16T20:04:19.786Z,10.45
2022-09-16T20:06:48.229Z,8.38
2022-09-16T20:09:16.943Z,14.18
2022-09-16T20:11:46.572Z,9.48
2022-09-16T20:14:21.511Z,8.38
2022-09-16T20:16:50.933Z,10.40
2022-09-16T20:19:20.852Z,9.85
2022-09-16T20:21:48.915Z,10.18
2022-09-16T20:24:19.368Z,9.80
2022-09-16T20:26:50.618Z,13.60
2022-09-16T20:29:19.831Z,10.40
2022-09-16T20:31:50.115Z,7.65
2022-09-16T20:34:18.182Z,8.27
2022-09-16T20:36:46.325Z,14.05
2022-09-16T20:39:15.261Z,8.65
2022-09-16T20:41:45.742Z,16.63
2022-09-16T20:44:15.776Z,11.60
2022-09-16T20:46:44.020Z,14.88
2022-09-16T20:49:15.920Z,10.52
2022-09-16T20:51:44.396Z,10.95
2022-09-16T20:54:14.312Z,10.98
2022-09-16T20:56:44.555Z,12.25
2022-09-16T20:59:14.374Z,12.25
2022-09-16T21:01:42.871Z,13.65
2022-09-16T21:04:15.983Z,14.32
2022-09-16T21:06:45.497Z,13.73
2022-09-16T21:09:16.253Z,18.30
2022-09-16T21:11:44.897Z,10.85
2022-09-16T21:14:16.245Z,10.93
2022-09-16T21:16:46.917Z,11.55
2022-09-16T21:19:16.664Z,11.65
2022-09-16T21:21:47.797Z,11.68
2022-09-16T21:24:16.845Z,11.90
2022-09-16T21:26:45.411Z,11.52
2022-09-16T21:29:15.574Z,15.38
2022-09-16T21:31:44.052Z,14.70
2022-09-16T21:34:21.036Z,11.13
2022-09-16T21:36:50.349Z,13.55
2022-09-16T21:39:20.466Z,14.35
2022-09-16T21:41:48.914Z,10.43
2022-09-16T21:44:17.823Z,11.25
2022-09-16T21:46:46.693Z,11.90
2022-09-16T21:49:25.512Z,10.63
2022-09-16T21:51:58.021Z,10.35
2022-09-16T21:54:26.708Z,11.40
2022-09-16T21:56:54.824Z,10.40
2022-09-16T21:59:23.629Z,11.27
2022-09-16T22:01:52.537Z,12.13
2022-09-16T22:04:23.200Z,10.35
2022-09-16T22:06:54.744Z,11.15
2022-09-16T22:09:23.502Z,12.32
2022-09-16T22:11:52.073Z,11.88
2022-09-16T22:14:19.761Z,11.57
2022-09-16T22:16:48.050Z,9.27
2022-09-16T22:19:19.211Z,8.93
2022-09-16T22:21:49.840Z,11.02
2022-09-16T22:24:20.476Z,9.10
2022-09-16T22:26:50.700Z,9.93
2022-09-16T22:29:18.833Z,8.57
2022-09-16T22:31:47.108Z,10.15
2022-09-16T22:34:15.063Z,11.18
2022-09-16T22:36:42.855Z,10.57
2022-09-16T22:39:19.533Z,12.30
2022-09-16T22:41:47.738Z,9.70
2022-09-16T22:44:15.788Z,10.77
2022-09-16T22:46:46.317Z,12.35
2022-09-16T22:49:15.281Z,9.82
2022-09-16T22:51:43.304Z,10.57
2022-09-16T22:54:13.171Z,9.40
2022-09-16T22:56:41.653Z,11.27
2022-09-16T22:59:20.608Z,11.00
2022-09-16T23:01:49.186Z,8.40
2022-09-16T23:04:18.580Z,9.30
2022-09-16T23:06:47.300Z,9.18
2022-09-16T23:09:15.358Z,8.98
2022-09-16T23:11:43.228Z,9.35
2022-09-16T23:14:15.675Z,10.95
2022-09-16T23:16:43.460Z,10.48
2022-09-16T23:19:12.107Z,11.25
2022-09-16T23:21:40.893Z,13.88
2022-09-16T23:24:13.359Z,12.77
2022-09-16T23:26:41.484Z,11.07
2022-09-16T23:29:11.945Z,9.85
2022-09-16T23:31:43.186Z,13.00
2022-09-16T23:34:21.694Z,9.73
2022-09-16T23:36:50.499Z,10.73
2022-09-16T23:39:19.418Z,9.98
2022-09-16T23:41:49.438Z,12.52
2022-09-16T23:44:17.575Z,9.23
2022-09-16T23:46:45.732Z,11.18
2022-09-16T23:49:13.702Z,14.75
2022-09-16T23:51:41.216Z,9.43
2022-09-16T23:54:09.025Z,12.13
2022-09-16T23:56:36.963Z,12.40
2022-09-16T23:59:04.851Z,12.55
